Grassy Sound, New Jersey
Current Conditions -  °F | °C
As of 8:55 PM on Friday 24 Oct 2014 (Local Time) from KWWD Reporting Station
Clear Clear  
Wind Chill: 61°   Ceiling: Unl
Heat Index: 61°   Visibility: 10mi
Dew Point: 46°   Wind: 8mph
Humidity: 59%   Direction: 280°W
Pressure: 29.88"   Gusts: NA
Location:  38.9808°N, 74.8281°W
Report Text: KWWD 250055Z AUTO 28007KT 10SM CLR 16/08 A2988 RMK AO1
Loading
Personal Weather Stations






























Interactive Weather Map
Tropical Storm Tracking
New forecast layout! Learn more

10-Day Weather Forecast

Advertisements
Track Severe Weather on mobile